createdAt,value
2023-01-28T00:01:35.966Z,102807.75
2023-01-28T00:04:22.995Z,102805.53
2023-01-28T00:07:09.678Z,102806.38
2023-01-28T00:09:56.279Z,102798.84
2023-01-28T00:12:44.578Z,102803.66
2023-01-28T00:15:31.582Z,102807.22
2023-01-28T00:18:18.262Z,102805.16
2023-01-28T00:21:07.657Z,102808.47
2023-01-28T00:23:56.007Z,102800.50
2023-01-28T00:26:43.838Z,102801.91
2023-01-28T00:29:32.119Z,102806.19
2023-01-28T00:32:18.725Z,102800.94
2023-01-28T00:35:05.979Z,102807.13
2023-01-28T00:37:52.916Z,102804.22
2023-01-28T00:40:39.916Z,102804.53
2023-01-28T00:43:26.879Z,102801.78
2023-01-28T00:46:15.580Z,102805.94
2023-01-28T00:49:02.890Z,102811.09
2023-01-28T00:51:49.987Z,102810.47
2023-01-28T00:54:37.640Z,102817.63
2023-01-28T00:57:24.447Z,102820.81
2023-01-28T01:00:12.738Z,102814.03
2023-01-28T01:03:01.105Z,102808.22
2023-01-28T01:05:48.618Z,102808.50
2023-01-28T01:08:40.173Z,102801.50
2023-01-28T01:11:27.062Z,102805.09
2023-01-28T01:14:13.818Z,102807.13
2023-01-28T01:17:00.643Z,102817.03
2023-01-28T01:19:48.845Z,102816.91
2023-01-28T01:22:35.989Z,102824.66
2023-01-28T01:25:23.232Z,102819.97
2023-01-28T01:28:10.051Z,102819.69
2023-01-28T01:31:02.198Z,102820.00
2023-01-28T01:33:50.910Z,102820.34
2023-01-28T01:36:39.280Z,102814.19
2023-01-28T01:39:26.267Z,102830.75
2023-01-28T01:42:14.936Z,102830.88
2023-01-28T01:45:04.309Z,102837.53
2023-01-28T01:48:02.199Z,102842.59
2023-01-28T01:50:54.104Z,102850.09
2023-01-28T01:53:44.985Z,102847.00
2023-01-28T01:56:36.727Z,102856.34
2023-01-28T01:59:27.051Z,102858.94
2023-01-28T02:02:14.320Z,102860.44
2023-01-28T02:05:04.019Z,102859.63
2023-01-28T02:07:55.013Z,102848.31
2023-01-28T02:10:43.239Z,102851.06
2023-01-28T02:13:34.438Z,102845.81
2023-01-28T02:16:22.258Z,102851.91
2023-01-28T02:19:10.245Z,102850.69
2023-01-28T02:22:11.350Z,102844.31
2023-01-28T02:25:17.836Z,102840.22
2023-01-28T02:28:24.024Z,102841.94
2023-01-28T02:31:15.771Z,102844.53
2023-01-28T02:34:11.209Z,102850.81
2023-01-28T02:37:04.008Z,102860.53
2023-01-28T02:39:55.790Z,102861.63
2023-01-28T02:42:43.295Z,102867.75
2023-01-28T02:45:47.944Z,102864.44
2023-01-28T02:48:34.663Z,102868.53
2023-01-28T02:51:34.378Z,102867.00
2023-01-28T02:54:32.947Z,102872.75
2023-01-28T02:57:31.379Z,102872.47
2023-01-28T03:00:24.269Z,102873.88
2023-01-28T03:03:17.950Z,102864.44
2023-01-28T03:06:08.929Z,102857.03
2023-01-28T03:09:17.518Z,102859.59
2023-01-28T03:12:25.581Z,102855.06
2023-01-28T03:15:34.544Z,102858.09
2023-01-28T03:18:45.334Z,102865.75
2023-01-28T03:21:53.069Z,102864.00
2023-01-28T03:25:05.438Z,102863.13
2023-01-28T03:28:13.476Z,102854.41
2023-01-28T03:31:24.813Z,102864.97
2023-01-28T03:34:34.290Z,102851.81
2023-01-28T03:37:21.151Z,102853.09
2023-01-28T03:40:13.198Z,102850.44
2023-01-28T03:43:00.798Z,102853.66
2023-01-28T03:45:55.530Z,102843.91
2023-01-28T03:48:42.596Z,102840.81
2023-01-28T03:51:32.285Z,102835.66
2023-01-28T03:54:18.611Z,102843.56
2023-01-28T03:57:07.061Z,102853.75
2023-01-28T03:59:54.320Z,102855.53
2023-01-28T04:02:41.886Z,102857.22
2023-01-28T04:05:31.716Z,102860.88
2023-01-28T04:08:21.024Z,102861.81
2023-01-28T04:11:26.101Z,102867.31
2023-01-28T04:14:12.612Z,102860.59
2023-01-28T04:17:19.441Z,102866.66
2023-01-28T04:20:07.272Z,102871.84
2023-01-28T04:22:53.897Z,102885.09
2023-01-28T04:25:43.349Z,102892.31
2023-01-28T04:28:30.210Z,102885.16
2023-01-28T04:31:18.246Z,102891.34
2023-01-28T04:34:14.387Z,102897.59
2023-01-28T04:37:11.727Z,102907.66
2023-01-28T04:40:16.934Z,102903.91
2023-01-28T04:43:19.969Z,102907.97
2023-01-28T04:46:29.416Z,102910.19
2023-01-28T04:49:33.424Z,102905.22
2023-01-28T04:52:32.384Z,102904.97
2023-01-28T04:55:32.882Z,102896.59
2023-01-28T04:58:21.993Z,102897.25
2023-01-28T05:01:11.397Z,102894.81
2023-01-28T05:03:58.037Z,102893.81
2023-01-28T05:06:46.640Z,102894.38
2023-01-28T05:09:39.213Z,102896.28
2023-01-28T05:12:25.912Z,102897.56
2023-01-28T05:15:16.513Z,102898.88
2023-01-28T05:18:03.325Z,102898.53
2023-01-28T05:20:55.194Z,102896.03
2023-01-28T05:23:41.882Z,102893.50
2023-01-28T05:26:29.049Z,102902.03
2023-01-28T05:29:15.397Z,102898.63
2023-01-28T05:32:03.499Z,102899.59
2023-01-28T05:34:51.432Z,102900.00
2023-01-28T05:37:38.152Z,102896.44
2023-01-28T05:40:24.882Z,102896.91
2023-01-28T05:43:11.761Z,102911.41
2023-01-28T05:46:04.376Z,102910.22
2023-01-28T05:49:22.239Z,102907.16
2023-01-28T05:52:28.885Z,102907.25
2023-01-28T05:55:16.311Z,102894.03
2023-01-28T05:58:03.032Z,102898.50
2023-01-28T06:00:50.044Z,102903.81
2023-01-28T06:03:42.717Z,102901.63
2023-01-28T06:06:31.121Z,102907.63
2023-01-28T06:09:17.844Z,102902.63
2023-01-28T06:12:04.082Z,102905.69
2023-01-28T06:14:56.494Z,102907.78
2023-01-28T06:18:09.025Z,102909.00
2023-01-28T06:20:55.492Z,102910.97
2023-01-28T06:23:43.066Z,102910.88
2023-01-28T06:26:30.193Z,102902.88
2023-01-28T06:29:17.089Z,102912.44
2023-01-28T06:32:04.020Z,102913.03
2023-01-28T06:34:50.430Z,102912.22
2023-01-28T06:37:37.349Z,102909.56
2023-01-28T06:40:25.994Z,102912.25
2023-01-28T06:43:12.452Z,102919.56
2023-01-28T06:45:59.832Z,102919.72
2023-01-28T06:48:47.050Z,102922.78
2023-01-28T06:51:33.635Z,102926.91
2023-01-28T06:54:19.977Z,102918.97
2023-01-28T06:57:07.970Z,102922.22
2023-01-28T06:59:54.432Z,102935.25
2023-01-28T07:02:41.074Z,102938.34
2023-01-28T07:05:27.644Z,102939.66
2023-01-28T07:08:14.423Z,102930.47
2023-01-28T07:11:01.566Z,102935.16
2023-01-28T07:13:49.328Z,102938.03
2023-01-28T07:16:35.764Z,102930.63
2023-01-28T07:19:22.275Z,102937.59
2023-01-28T07:22:08.848Z,102931.44
2023-01-28T07:24:55.668Z,102928.44
2023-01-28T07:27:47.640Z,102942.63
2023-01-28T07:30:35.283Z,102949.16
2023-01-28T07:33:22.294Z,102946.19
2023-01-28T07:36:09.442Z,102957.19
2023-01-28T07:38:55.712Z,102951.34
2023-01-28T07:41:42.253Z,102954.31
2023-01-28T07:44:30.573Z,102956.81
2023-01-28T07:47:19.590Z,102957.47
2023-01-28T07:50:06.979Z,102970.13
2023-01-28T07:52:53.518Z,102968.38
2023-01-28T07:55:40.331Z,102956.72
2023-01-28T07:58:26.693Z,102971.66
2023-01-28T08:01:14.216Z,102971.88
2023-01-28T08:04:02.136Z,102971.19
2023-01-28T08:06:48.712Z,102962.38
2023-01-28T08:09:35.450Z,102977.41
2023-01-28T08:12:21.924Z,102978.19
2023-01-28T08:15:09.678Z,102976.84
2023-01-28T08:17:57.779Z,102977.44
2023-01-28T08:20:47.349Z,102980.38
2023-01-28T08:23:34.607Z,102989.09
2023-01-28T08:26:21.329Z,102992.47
2023-01-28T08:29:08.084Z,102987.78
2023-01-28T08:31:54.750Z,102994.88
2023-01-28T08:34:41.300Z,102992.06
2023-01-28T08:37:29.068Z,102991.22
2023-01-28T08:40:16.690Z,103005.13
2023-01-28T08:43:03.517Z,103010.94
2023-01-28T08:45:50.323Z,103000.25
2023-01-28T08:48:38.509Z,103023.09
2023-01-28T08:51:25.060Z,103016.72
2023-01-28T08:54:12.906Z,103022.25
2023-01-28T08:56:59.497Z,103027.94
2023-01-28T08:59:46.419Z,103033.84
2023-01-28T09:02:33.034Z,103032.91
2023-01-28T09:05:19.962Z,103044.91
2023-01-28T09:08:09.272Z,103037.13
2023-01-28T09:10:57.803Z,103038.84
2023-01-28T09:13:44.117Z,103049.69
2023-01-28T09:16:30.565Z,103042.56
2023-01-28T09:19:17.109Z,103049.41
2023-01-28T09:22:04.645Z,103053.31
2023-01-28T09:24:51.080Z,103056.94
2023-01-28T09:27:39.041Z,103069.72
2023-01-28T09:30:25.818Z,103054.28
2023-01-28T09:33:12.571Z,103054.31
2023-01-28T09:36:01.071Z,103066.53
2023-01-28T09:38:47.638Z,103067.97
2023-01-28T09:41:48.698Z,103057.56
2023-01-28T09:44:53.556Z,103076.78
2023-01-28T09:47:45.396Z,103081.53
2023-01-28T09:50:34.682Z,103075.31
2023-01-28T09:53:25.970Z,103075.22
2023-01-28T09:56:17.024Z,103074.88
2023-01-28T09:59:17.676Z,103075.13
2023-01-28T10:02:26.081Z,103081.78
2023-01-28T10:05:21.380Z,103071.72
2023-01-28T10:08:26.524Z,103097.50
2023-01-28T10:11:21.691Z,103097.38
2023-01-28T10:14:14.472Z,103101.38
2023-01-28T10:17:11.538Z,103096.19
2023-01-28T10:20:02.986Z,103098.47
2023-01-28T10:22:54.173Z,103094.06
2023-01-28T10:25:44.970Z,103098.22
2023-01-28T10:28:32.582Z,103092.59
2023-01-28T10:31:19.096Z,103086.84
2023-01-28T10:34:07.270Z,103076.56
2023-01-28T10:36:54.396Z,103085.28
2023-01-28T10:39:41.148Z,103088.75
2023-01-28T10:42:30.367Z,103083.69
2023-01-28T10:45:22.138Z,103076.06
2023-01-28T10:48:16.212Z,103084.13
2023-01-28T10:51:06.113Z,103083.66
2023-01-28T10:53:52.344Z,103073.72
2023-01-28T10:56:39.131Z,103078.00
2023-01-28T10:59:29.078Z,103068.25
2023-01-28T11:02:29.328Z,103060.56
2023-01-28T11:05:20.871Z,103063.97
2023-01-28T11:08:15.550Z,103065.03
2023-01-28T11:11:02.200Z,103040.38
2023-01-28T11:13:53.448Z,103038.84
2023-01-28T11:16:41.167Z,103017.88
2023-01-28T11:19:34.862Z,103021.81
2023-01-28T11:22:28.427Z,103012.41
2023-01-28T11:25:22.753Z,103012.44
2023-01-28T11:28:19.575Z,103001.31
2023-01-28T11:31:06.763Z,102984.63
2023-01-28T11:33:57.206Z,102986.31
2023-01-28T11:36:52.045Z,102993.03
2023-01-28T11:39:38.813Z,103000.47
2023-01-28T11:42:26.645Z,102993.19
2023-01-28T11:45:17.914Z,102965.34
2023-01-28T11:48:15.641Z,102974.97
2023-01-28T11:51:05.834Z,102974.19
2023-01-28T11:53:57.674Z,102976.72
2023-01-28T11:56:58.152Z,102984.63
2023-01-28T11:59:59.439Z,102996.28
2023-01-28T12:02:54.616Z,102997.53
2023-01-28T12:05:50.472Z,103000.53
2023-01-28T12:08:46.001Z,103019.28
2023-01-28T12:12:03.544Z,103007.84
2023-01-28T12:15:17.726Z,103003.72
2023-01-28T12:18:18.150Z,103003.28
2023-01-28T12:21:08.409Z,102989.81
2023-01-28T12:24:10.881Z,103013.25
2023-01-28T12:27:06.661Z,103009.13
2023-01-28T12:30:05.174Z,103012.19
2023-01-28T12:33:06.818Z,103014.88
2023-01-28T12:36:07.352Z,103025.91
2023-01-28T12:39:04.306Z,103015.06
2023-01-28T12:41:56.950Z,103015.28
2023-01-28T12:44:49.699Z,103000.69
2023-01-28T12:47:40.544Z,103001.03
2023-01-28T12:50:32.640Z,102992.28
2023-01-28T12:53:27.115Z,102990.31
2023-01-28T12:56:17.657Z,102983.88
2023-01-28T12:59:11.615Z,102982.41
2023-01-28T13:02:10.326Z,102964.00
2023-01-28T13:05:07.026Z,102958.50
2023-01-28T13:07:58.371Z,102942.03
2023-01-28T13:10:47.218Z,102937.00
2023-01-28T13:13:35.195Z,102921.69
2023-01-28T13:16:35.902Z,102920.50
2023-01-28T13:19:26.181Z,102914.91
2023-01-28T13:22:28.036Z,102903.97
2023-01-28T13:25:21.261Z,102907.03
2023-01-28T13:28:29.511Z,102916.06
2023-01-28T13:31:18.504Z,102914.66
2023-01-28T13:34:07.683Z,102930.59
2023-01-28T13:36:54.788Z,102921.28
2023-01-28T13:39:49.189Z,102921.16
2023-01-28T13:42:36.363Z,102919.41
2023-01-28T13:45:24.821Z,102918.31
2023-01-28T13:48:28.099Z,102922.94
2023-01-28T13:51:21.122Z,102921.47
2023-01-28T13:54:13.692Z,102927.28
2023-01-28T13:57:34.823Z,102923.53
2023-01-28T14:00:27.734Z,102920.25
2023-01-28T14:03:42.003Z,102913.72
2023-01-28T14:07:02.358Z,102912.53
2023-01-28T14:10:06.972Z,102907.47
2023-01-28T14:13:13.847Z,102920.88
2023-01-28T14:16:15.922Z,102940.34
2023-01-28T14:19:03.565Z,102947.25
2023-01-28T14:21:50.547Z,102949.06
2023-01-28T14:24:38.764Z,102953.13
2023-01-28T14:27:33.401Z,102958.84
2023-01-28T14:30:27.903Z,102943.28
2023-01-28T14:33:14.842Z,102934.22
2023-01-28T14:36:01.392Z,102923.81
2023-01-28T14:38:48.084Z,102920.72
2023-01-28T14:41:36.016Z,102909.00
2023-01-28T14:44:30.241Z,102908.09
2023-01-28T14:47:33.524Z,102916.72
2023-01-28T14:50:36.563Z,102919.72
2023-01-28T14:53:39.662Z,102916.09
2023-01-28T14:56:38.589Z,102910.91
2023-01-28T14:59:29.439Z,102913.44
2023-01-28T15:02:22.782Z,102923.03
2023-01-28T15:05:11.679Z,102920.91
2023-01-28T15:07:58.381Z,102929.59
2023-01-28T15:10:45.094Z,102939.31
2023-01-28T15:13:37.317Z,102943.13
2023-01-28T15:16:29.007Z,102941.69
2023-01-28T15:19:18.087Z,102930.28
2023-01-28T15:22:08.229Z,102937.19
2023-01-28T15:24:55.400Z,102939.22
2023-01-28T15:27:43.355Z,102947.75
2023-01-28T15:30:31.746Z,102950.09
2023-01-28T15:33:18.539Z,102954.19
2023-01-28T15:36:07.608Z,102965.16
2023-01-28T15:38:54.556Z,102950.94
2023-01-28T15:41:44.478Z,102946.66
2023-01-28T15:44:34.898Z,102938.56
2023-01-28T15:47:24.800Z,102928.22
2023-01-28T15:50:19.592Z,102923.63
2023-01-28T15:53:11.137Z,102927.47
2023-01-28T15:56:06.842Z,102916.84
2023-01-28T15:58:53.955Z,102918.13
2023-01-28T16:01:40.233Z,102930.81
2023-01-28T16:04:28.671Z,102939.69
2023-01-28T16:07:15.656Z,102938.47
2023-01-28T16:10:04.725Z,102930.03
2023-01-28T16:12:53.216Z,102945.31
2023-01-28T16:15:41.745Z,102946.88
2023-01-28T16:18:36.582Z,102946.75
2023-01-28T16:21:26.486Z,102938.09
2023-01-28T16:24:24.730Z,102923.41
2023-01-28T16:27:23.364Z,102929.38
2023-01-28T16:30:12.461Z,102928.13
2023-01-28T16:33:00.241Z,102934.16
2023-01-28T16:36:04.541Z,102929.97
2023-01-28T16:38:52.833Z,102937.50
2023-01-28T16:41:42.297Z,102926.59
2023-01-28T16:44:30.492Z,102926.50
2023-01-28T16:47:17.285Z,102937.69
2023-01-28T16:50:04.045Z,102941.91
2023-01-28T16:52:54.548Z,102939.00
2023-01-28T16:55:41.447Z,102936.09
2023-01-28T16:58:28.770Z,102936.63
2023-01-28T17:01:16.750Z,102924.59
2023-01-28T17:04:05.601Z,102930.28
2023-01-28T17:06:53.225Z,102935.88
2023-01-28T17:09:40.690Z,102927.50
2023-01-28T17:12:27.367Z,102937.75
2023-01-28T17:15:14.436Z,102937.44
2023-01-28T17:18:03.089Z,102938.69
2023-01-28T17:20:49.623Z,102944.06
2023-01-28T17:23:36.684Z,102938.38
2023-01-28T17:26:22.976Z,102933.97
2023-01-28T17:29:09.750Z,102931.56
2023-01-28T17:31:57.001Z,102927.47
2023-01-28T17:34:45.262Z,102922.44
2023-01-28T17:37:31.867Z,102921.78
2023-01-28T17:40:19.273Z,102930.94
2023-01-28T17:43:06.288Z,102925.44
2023-01-28T17:45:52.838Z,102932.66
2023-01-28T17:48:39.637Z,102927.03
2023-01-28T17:51:27.853Z,102929.75
2023-01-28T17:54:15.738Z,102923.81
2023-01-28T17:57:02.624Z,102928.47
2023-01-28T17:59:49.172Z,102934.03
2023-01-28T18:02:35.799Z,102944.63
2023-01-28T18:05:22.560Z,102951.97
2023-01-28T18:08:10.797Z,102950.13
2023-01-28T18:10:57.599Z,102954.50
2023-01-28T18:13:44.496Z,102963.84
2023-01-28T18:16:31.565Z,102950.50
2023-01-28T18:19:18.182Z,102963.84
2023-01-28T18:22:04.914Z,102967.47
2023-01-28T18:24:52.917Z,102968.97
2023-01-28T18:27:39.622Z,102964.38
2023-01-28T18:30:26.329Z,102974.81
2023-01-28T18:33:12.959Z,102988.03
2023-01-28T18:35:59.847Z,102986.16
2023-01-28T18:38:46.713Z,102981.09
2023-01-28T18:41:34.824Z,102975.59
2023-01-28T18:44:23.103Z,102974.38
2023-01-28T18:47:10.033Z,102984.34
2023-01-28T18:49:56.284Z,102977.91
2023-01-28T18:52:43.251Z,102972.28
2023-01-28T18:55:29.927Z,102970.03
2023-01-28T18:58:17.809Z,102970.44
2023-01-28T19:01:08.726Z,102966.97
2023-01-28T19:03:55.430Z,102965.47
2023-01-28T19:06:42.223Z,102957.44
2023-01-28T19:09:28.902Z,102959.09
2023-01-28T19:12:15.634Z,102952.34
2023-01-28T19:15:03.851Z,102954.25
2023-01-28T19:17:50.001Z,102952.78
2023-01-28T19:20:36.685Z,102956.06
2023-01-28T19:23:23.388Z,102955.13
2023-01-28T19:26:10.790Z,102955.22
2023-01-28T19:28:57.343Z,102955.06
2023-01-28T19:31:48.765Z,102954.97
2023-01-28T19:34:35.321Z,102943.81
2023-01-28T19:37:21.895Z,102946.00
2023-01-28T19:40:09.752Z,102950.81
2023-01-28T19:42:56.107Z,102954.00
2023-01-28T19:45:42.827Z,102955.19
2023-01-28T19:48:30.856Z,102939.81
2023-01-28T19:51:17.560Z,102945.16
2023-01-28T19:54:04.774Z,102937.19
2023-01-28T19:56:51.136Z,102934.25
2023-01-28T19:59:37.675Z,102926.41
2023-01-28T20:02:24.346Z,102933.56
2023-01-28T20:05:12.335Z,102920.13
2023-01-28T20:07:58.924Z,102931.97
2023-01-28T20:10:45.515Z,102925.50
2023-01-28T20:13:33.895Z,102931.34
2023-01-28T20:16:23.159Z,102937.84
2023-01-28T20:19:15.237Z,102935.81
2023-01-28T20:22:03.261Z,102936.38
2023-01-28T20:24:57.019Z,102926.91
2023-01-28T20:27:43.643Z,102925.94
2023-01-28T20:30:30.185Z,102913.97
2023-01-28T20:33:17.034Z,102906.41
2023-01-28T20:36:04.239Z,102907.00
2023-01-28T20:38:52.939Z,102912.34
2023-01-28T20:41:39.718Z,102902.69
2023-01-28T20:44:26.696Z,102909.19
2023-01-28T20:47:12.907Z,102904.50
2023-01-28T20:49:59.390Z,102908.69
2023-01-28T20:52:45.989Z,102903.81
2023-01-28T20:55:33.905Z,102888.06
2023-01-28T20:58:20.380Z,102901.09
2023-01-28T21:01:07.110Z,102896.41
2023-01-28T21:03:54.040Z,102901.56
2023-01-28T21:06:40.914Z,102890.38
2023-01-28T21:09:27.917Z,102885.16
2023-01-28T21:12:15.863Z,102891.94
2023-01-28T21:15:03.476Z,102891.41
2023-01-28T21:17:50.168Z,102896.97
2023-01-28T21:20:36.528Z,102896.28
2023-01-28T21:23:24.164Z,102894.47
2023-01-28T21:26:11.459Z,102891.69
2023-01-28T21:29:02.171Z,102890.22
2023-01-28T21:31:48.415Z,102890.66
2023-01-28T21:34:35.251Z,102897.59
2023-01-28T21:37:22.473Z,102898.63
2023-01-28T21:40:10.515Z,102894.81
2023-01-28T21:42:56.798Z,102896.84
2023-01-28T21:45:47.632Z,102890.59
2023-01-28T21:48:34.171Z,102885.78
2023-01-28T21:51:40.381Z,102882.91
2023-01-28T21:54:27.325Z,102884.81
2023-01-28T21:57:13.911Z,102880.28
2023-01-28T22:00:00.319Z,102877.66
2023-01-28T22:02:48.240Z,102872.09
2023-01-28T22:05:34.774Z,102867.38
2023-01-28T22:08:21.307Z,102874.41
2023-01-28T22:11:09.496Z,102878.69
2023-01-28T22:13:56.054Z,102885.09
2023-01-28T22:16:43.496Z,102890.25
2023-01-28T22:19:31.623Z,102899.41
2023-01-28T22:22:18.655Z,102907.53
2023-01-28T22:25:05.446Z,102899.84
2023-01-28T22:27:51.633Z,102897.53
2023-01-28T22:30:38.263Z,102889.78
2023-01-28T22:33:25.817Z,102887.94
2023-01-28T22:36:16.906Z,102879.53
2023-01-28T22:39:06.264Z,102887.47
2023-01-28T22:41:53.126Z,102890.34
2023-01-28T22:44:39.832Z,102878.59
2023-01-28T22:47:26.315Z,102864.44
2023-01-28T22:50:13.501Z,102868.97
2023-01-28T22:53:01.649Z,102868.19
2023-01-28T22:55:51.806Z,102867.09
2023-01-28T22:58:38.363Z,102853.69
2023-01-28T23:02:03.209Z,102845.22
2023-01-28T23:04:50.831Z,102845.97
2023-01-28T23:07:37.328Z,102849.69
2023-01-28T23:10:25.152Z,102854.22
2023-01-28T23:13:11.525Z,102849.00
2023-01-28T23:16:15.837Z,102840.81
2023-01-28T23:19:20.162Z,102838.34
2023-01-28T23:22:36.066Z,102838.03
2023-01-28T23:25:25.546Z,102836.03
2023-01-28T23:28:11.827Z,102831.84
2023-01-28T23:30:58.616Z,102837.03
2023-01-28T23:33:44.993Z,102832.44
2023-01-28T23:36:31.676Z,102831.97
2023-01-28T23:39:18.286Z,102834.66
2023-01-28T23:42:14.337Z,102830.75
2023-01-28T23:45:00.433Z,102831.84
2023-01-28T23:47:47.298Z,102829.16
2023-01-28T23:50:33.523Z,102821.69
2023-01-28T23:53:20.030Z,102820.56
2023-01-28T23:56:07.521Z,102818.53
2023-01-28T23:58:56.974Z,102804.66
